»·PEaware :: N827WM KSAN-KTUS

N827WM :: KSAN-KTUS

FLIGHT INFORMATION

Flight Status: Arrived
Operator: Privately registered:
United States
More flights under this callsign
Pilot: Chris R. (3284)
Aircraft: BOEING 737-600
(B736)
More flights by this aircraft type
Origin: KSAN San Diego Intl-Lindbergh
United States
Destination: KTUS Tucson Intl
United States
More flights between these airports :: More routes between these airports
Route: +POGGI5 IPL GBN DINGO5
File this flight plan on PilotEdge
Remarks: CALLSIGN "WATERMAKER"
Altitude:
(Current/Filed)
33,000ft
Speed:
(Current/Filed)
460kts
Departed: 06-Dec-17 05:54 PM
Arrived: 06-Dec-17 06:52 PM
Distance/Time
Traveled:
319nm/0:58
Distance/Time
To Go:
Arrived

Flight Plot

Page will automatically refresh every two minutes.

Flight plan parsing failed; only flown route is shown


Map Options




Map Legend


Flown Route
Filed Route
Departure Airport
Arrival Airport
Navaid (VOR, NDB)
Fix

Horizontal Profiles

Position Reports

Time Latitude Longitude Heading Altitude Ground
Speed
06-Dec-17 17:29 32.732600 -117.177086 15 22ft 0kts
06-Dec-17 17:30 32.732600 -117.177086 15 22ft 0kts
06-Dec-17 17:31 32.732600 -117.177086 15 22ft 0kts
06-Dec-17 17:32 32.732600 -117.177086 15 22ft 0kts
06-Dec-17 17:33 32.732600 -117.177086 15 22ft 0kts
06-Dec-17 17:34 32.732600 -117.177086 15 22ft 0kts
06-Dec-17 17:35 32.732600 -117.177086 15 22ft 0kts
06-Dec-17 17:36 32.732600 -117.177086 15 22ft 0kts
06-Dec-17 17:37 32.732600 -117.177086 15 22ft 0kts
06-Dec-17 17:38 32.732600 -117.177086 15 22ft 0kts
06-Dec-17 17:39 32.732600 -117.177086 15 22ft 0kts
06-Dec-17 17:40 32.732600 -117.177086 15 22ft 0kts
06-Dec-17 17:41 32.732600 -117.177086 15 22ft 0kts
06-Dec-17 17:42 32.732600 -117.177086 15 22ft 0kts
06-Dec-17 17:44 32.732600 -117.177086 15 22ft 0kts
06-Dec-17 17:45 32.732600 -117.177086 15 23ft 0kts
06-Dec-17 17:46 32.732600 -117.177086 15 23ft 0kts
06-Dec-17 17:47 32.732600 -117.177086 15 23ft 0kts
06-Dec-17 17:48 32.732600 -117.177086 15 23ft 0kts
06-Dec-17 17:49 32.732600 -117.177086 15 23ft 0kts
06-Dec-17 17:50 32.732600 -117.177086 15 23ft 0kts
06-Dec-17 17:50 32.732600 -117.177086 15 23ft 0kts
06-Dec-17 17:52 32.732600 -117.177086 15 23ft 0kts
06-Dec-17 17:52 32.732600 -117.177086 15 23ft 0kts
06-Dec-17 17:54 32.732600 -117.177086 15 23ft 0kts
06-Dec-17 17:55 32.732600 -117.177086 15 23ft 0kts
06-Dec-17 17:55 32.731866 -117.176356 157 23ft 0kts
06-Dec-17 17:57 32.731224 -117.176107 120 23ft 5kts
06-Dec-17 17:57 32.730797 -117.175126 187 23ft 0kts
06-Dec-17 17:58 32.730795 -117.175126 187 23ft 0kts
06-Dec-17 17:59 32.732870 -117.186996 285 23ft 145kts
06-Dec-17 18:00 32.741410 -117.243539 267 3265ft 187kts
06-Dec-17 18:01 32.710747 -117.305471 224 6190ft 237kts
06-Dec-17 18:02 32.691303 -117.371293 314 7997ft 258kts
06-Dec-17 18:03 32.745607 -117.368263 74 8074ft 243kts
06-Dec-17 18:04 32.727220 -117.281658 102 11648ft 300kts
06-Dec-17 18:05 32.690204 -117.177198 116 14053ft 380kts
06-Dec-17 18:06 32.641515 -117.060972 110 17462ft 404kts
06-Dec-17 18:07 32.614920 -116.931007 83 20592ft 415kts
06-Dec-17 18:08 32.628926 -116.791887 79 23070ft 436kts
06-Dec-17 18:09 32.642923 -116.648608 80 23199ft 436kts
06-Dec-17 18:10 32.656829 -116.503156 80 25268ft 453kts
06-Dec-17 18:11 32.671252 -116.350788 80 27300ft 473kts
06-Dec-17 18:12 32.686496 -116.192728 80 29041ft 491kts
06-Dec-17 18:13 32.701683 -116.030365 81 30939ft 498kts
06-Dec-17 18:14 32.716891 -115.865967 81 32858ft 501kts
06-Dec-17 18:15 32.731898 -115.701060 81 33218ft 501kts
06-Dec-17 18:16 32.746408 -115.536643 81 33218ft 501kts
06-Dec-17 18:17 32.760292 -115.371386 82 33220ft 502kts
06-Dec-17 18:18 32.773724 -115.206172 82 33219ft 503kts
06-Dec-17 18:19 32.787248 -115.040182 82 33217ft 504kts
06-Dec-17 18:20 32.800775 -114.874492 82 33212ft 504kts
06-Dec-17 18:21 32.813925 -114.708528 82 33206ft 506kts
06-Dec-17 18:22 32.821698 -114.608732 82 33205ft 506kts
06-Dec-17 18:23 32.834488 -114.442056 82 33205ft 507kts
06-Dec-17 18:24 32.847094 -114.274771 82 33205ft 507kts
06-Dec-17 18:25 32.859451 -114.107778 82 33207ft 507kts
06-Dec-17 18:26 32.871579 -113.940904 83 33206ft 504kts
06-Dec-17 18:27 32.883464 -113.774162 83 33205ft 505kts
06-Dec-17 18:28 32.895098 -113.607851 83 33202ft 505kts
06-Dec-17 18:29 32.906534 -113.441187 84 33198ft 506kts
06-Dec-17 18:30 32.917811 -113.273561 84 32840ft 508kts
06-Dec-17 18:31 32.928842 -113.106256 84 31837ft 508kts
06-Dec-17 18:32 32.939931 -112.938112 84 30835ft 509kts
06-Dec-17 18:33 32.950400 -112.770237 84 29837ft 510kts
06-Dec-17 18:34 32.932312 -112.604844 112 28836ft 509kts
06-Dec-17 18:35 32.871689 -112.452336 116 27836ft 509kts
06-Dec-17 18:36 32.811749 -112.299920 115 27162ft 510kts
06-Dec-17 18:37 32.752498 -112.146821 116 27162ft 511kts
06-Dec-17 18:38 32.692669 -111.993275 116 27160ft 511kts
06-Dec-17 18:39 32.632946 -111.840189 116 26382ft 512kts
06-Dec-17 18:40 32.572501 -111.686893 116 25380ft 509kts
06-Dec-17 18:41 32.497976 -111.547915 129 23575ft 491kts
06-Dec-17 18:42 32.417781 -111.421118 127 19947ft 468kts
06-Dec-17 18:43 32.347230 -111.296530 107 16441ft 441kts
06-Dec-17 18:44 32.322376 -111.161936 100 13761ft 405kts
06-Dec-17 18:45 32.303383 -111.034963 83 10871ft 379kts
06-Dec-17 18:46 32.372764 -110.966082 9 7985ft 323kts
06-Dec-17 18:47 32.440693 -110.989180 289 7393ft 280kts
06-Dec-17 18:48 32.401500 -111.062451 220 6989ft 283kts
06-Dec-17 18:49 32.341532 -111.123161 220 6750ft 287kts
06-Dec-17 18:50 32.275332 -111.142712 160 6009ft 231kts
06-Dec-17 18:51 32.234942 -111.110543 91 5901ft 151kts
06-Dec-17 18:52 32.223915 -111.066883 126 5380ft 145kts
06-Dec-17 18:53 32.196642 -111.034047 134 4632ft 139kts
06-Dec-17 18:54 32.169368 -111.001960 134 3908ft 137kts
06-Dec-17 18:55 32.142236 -110.970077 135 3149ft 135kts
06-Dec-17 18:56 32.116290 -110.939603 135 2651ft 97kts
06-Dec-17 18:57 32.112405 -110.933341 331 2651ft 25kts
06-Dec-17 18:58 32.115793 -110.934452 135 2650ft 13kts
06-Dec-17 18:59 32.113480 -110.931736 135 2650ft 0kts
06-Dec-17 19:00 32.113480 -110.931736 135 2650ft 0kts
06-Dec-17 19:01 32.113480 -110.931736 135 2650ft 0kts
06-Dec-17 19:02 32.113480 -110.931736 135 2650ft 0kts
06-Dec-17 19:03 32.113480 -110.931736 135 2650ft 0kts

Navigation Log

Ident Type
Flight plan parsing failed, navigation log unavailable